createdAt,value
2019-05-05T00:00:32.634Z,1029.64
2019-05-05T00:01:34.391Z,1029.67
2019-05-05T00:02:34.213Z,1029.66
2019-05-05T00:03:34.245Z,1029.7
2019-05-05T00:04:34.662Z,1029.71
2019-05-05T00:05:32.564Z,1029.73
2019-05-05T00:06:34.227Z,1029.74
2019-05-05T00:07:34.529Z,1029.81
2019-05-05T00:08:32.521Z,1029.78
2019-05-05T00:09:34.449Z,1029.79
2019-05-05T00:10:34.569Z,1029.77
2019-05-05T00:11:32.477Z,1029.8
2019-05-05T00:12:34.292Z,1029.82
2019-05-05T00:13:34.474Z,1029.82
2019-05-05T00:14:32.435Z,1029.87
2019-05-05T00:15:34.314Z,1029.83
2019-05-05T00:16:32.407Z,1029.88
2019-05-05T00:17:34.203Z,1029.85
2019-05-05T00:18:34.464Z,1029.86
2019-05-05T00:19:33.313Z,1029.91
2019-05-05T00:20:34.223Z,1029.91
2019-05-05T00:21:34.168Z,1029.84
2019-05-05T00:22:32.320Z,1029.88
2019-05-05T00:23:34.315Z,1029.88
2019-05-05T00:24:32.292Z,1029.9
2019-05-05T00:25:34.237Z,1029.93
2019-05-05T00:26:32.263Z,1029.92
2019-05-05T00:27:32.250Z,1029.94
2019-05-05T00:28:32.236Z,1029.94
2019-05-05T00:29:32.222Z,1029.94
2019-05-05T00:30:33.793Z,1029.93
2019-05-05T00:31:32.190Z,1029.92
2019-05-05T00:32:32.176Z,1029.93
2019-05-05T00:33:34.134Z,1029.91
2019-05-05T00:34:32.148Z,1029.95
2019-05-05T00:35:32.134Z,1029.94
2019-05-05T00:36:32.119Z,1029.95
2019-05-05T00:37:32.105Z,1029.94
2019-05-05T00:38:32.089Z,1029.91
2019-05-05T00:39:34.244Z,1029.97
2019-05-05T00:40:32.060Z,1029.95
2019-05-05T00:41:32.047Z,1029.98
2019-05-05T00:42:32.033Z,1030
2019-05-05T00:43:32.020Z,1030
2019-05-05T00:44:32.005Z,1029.96
2019-05-05T00:45:31.990Z,1029.96
2019-05-05T00:46:31.975Z,1029.97
2019-05-05T00:47:31.962Z,1030.01
2019-05-05T00:48:31.947Z,1030.03
2019-05-05T00:49:44.007Z,1030.03
2019-05-05T00:50:31.918Z,1030.07
2019-05-05T00:51:31.904Z,1030.05
2019-05-05T00:52:32.689Z,1030.09
2019-05-05T00:53:31.876Z,1030.11
2019-05-05T00:54:31.860Z,1030.12
2019-05-05T00:55:31.846Z,1030.08
2019-05-05T00:56:31.832Z,1030.09
2019-05-05T00:57:31.816Z,1030.1
2019-05-05T00:58:31.802Z,1030.12
2019-05-05T00:59:31.787Z,1030.15
2019-05-05T01:00:31.774Z,1030.17
2019-05-05T01:01:31.758Z,1030.2
2019-05-05T01:02:31.744Z,1030.18
2019-05-05T01:03:31.730Z,1030.2
2019-05-05T01:04:31.715Z,1030.19
2019-05-05T01:05:31.699Z,1030.26
2019-05-05T01:06:31.686Z,1030.28
2019-05-05T01:07:31.673Z,1030.29
2019-05-05T01:08:31.657Z,1030.31
2019-05-05T01:09:31.642Z,1030.34
2019-05-05T01:10:31.627Z,1030.36
2019-05-05T01:11:31.613Z,1030.37
2019-05-05T01:12:31.599Z,1030.44
2019-05-05T01:13:31.583Z,1030.43
2019-05-05T01:14:31.570Z,1030.47
2019-05-05T01:15:31.555Z,1030.48
2019-05-05T01:16:31.540Z,1030.46
2019-05-05T01:17:31.525Z,1030.49
2019-05-05T01:18:31.512Z,1030.51
2019-05-05T01:19:31.497Z,1030.49
2019-05-05T01:20:31.481Z,1030.53
2019-05-05T01:21:31.468Z,1030.52
2019-05-05T01:22:31.453Z,1030.54
2019-05-05T01:23:31.437Z,1030.62
2019-05-05T01:24:31.423Z,1030.64
2019-05-05T01:25:31.409Z,1030.67
2019-05-05T01:26:31.395Z,1030.7
2019-05-05T01:27:31.379Z,1030.69
2019-05-05T01:28:31.363Z,1030.7
2019-05-05T01:29:31.349Z,1030.74
2019-05-05T01:30:31.336Z,1030.73
2019-05-05T01:31:31.320Z,1030.76
2019-05-05T01:32:31.306Z,1030.78
2019-05-05T01:33:31.292Z,1030.79
2019-05-05T01:34:31.275Z,1030.79
2019-05-05T01:35:31.267Z,1030.88
2019-05-05T01:36:31.247Z,1030.85
2019-05-05T01:38:31.217Z,1030.84
2019-05-05T01:39:31.202Z,1030.88
2019-05-05T01:40:31.188Z,1030.92
2019-05-05T01:42:31.157Z,1030.97
2019-05-05T01:43:31.142Z,1030.99
2019-05-05T01:44:31.129Z,1031.03
2019-05-05T01:45:31.111Z,1031.06
2019-05-05T01:46:31.097Z,1031.07
2019-05-05T01:47:31.086Z,1031.15
2019-05-05T01:48:31.068Z,1031.16
2019-05-05T01:49:31.053Z,1031.22
2019-05-05T01:50:31.037Z,1031.27
2019-05-05T01:51:31.024Z,1031.29
2019-05-05T01:52:31.007Z,1031.31
2019-05-05T01:53:30.993Z,1031.35
2019-05-05T01:54:30.978Z,1031.37
2019-05-05T01:55:30.968Z,1031.39
2019-05-05T01:56:30.948Z,1031.41
2019-05-05T01:57:30.933Z,1031.46
2019-05-05T01:58:30.919Z,1031.43
2019-05-05T01:59:30.903Z,1031.46
2019-05-05T02:00:30.887Z,1031.46
2019-05-05T02:01:30.873Z,1031.47
2019-05-05T02:02:30.858Z,1031.49
2019-05-05T02:03:30.842Z,1031.48
2019-05-05T02:04:30.829Z,1031.5
2019-05-05T02:05:30.812Z,1031.5
2019-05-05T02:06:30.796Z,1031.5
2019-05-05T02:07:30.782Z,1031.53
2019-05-05T02:08:30.767Z,1031.51
2019-05-05T02:09:30.752Z,1031.55
2019-05-05T02:10:30.737Z,1031.57
2019-05-05T02:11:30.722Z,1031.57
2019-05-05T02:12:30.706Z,1031.57
2019-05-05T02:13:30.692Z,1031.57
2019-05-05T02:14:30.680Z,1031.58
2019-05-05T02:15:30.661Z,1031.56
2019-05-05T02:16:30.647Z,1031.58
2019-05-05T02:17:30.630Z,1031.6
2019-05-05T02:18:30.615Z,1031.58
2019-05-05T02:19:30.599Z,1031.62
2019-05-05T02:20:31.316Z,1031.62
2019-05-05T02:21:30.570Z,1031.6
2019-05-05T02:22:30.555Z,1031.6
2019-05-05T02:23:30.540Z,1031.61
2019-05-05T02:24:30.525Z,1031.61
2019-05-05T02:25:30.509Z,1031.61
2019-05-05T02:26:30.494Z,1031.63
2019-05-05T02:27:30.479Z,1031.66
2019-05-05T02:28:30.464Z,1031.64
2019-05-05T02:29:30.449Z,1031.67
2019-05-05T02:30:30.435Z,1031.73
2019-05-05T02:31:30.419Z,1031.72
2019-05-05T02:32:30.402Z,1031.77
2019-05-05T02:33:30.389Z,1031.75
2019-05-05T02:34:30.373Z,1031.82
2019-05-05T02:35:30.358Z,1031.79
2019-05-05T02:36:30.342Z,1031.83
2019-05-05T02:37:30.327Z,1031.87
2019-05-05T02:38:30.312Z,1031.88
2019-05-05T02:39:30.298Z,1031.88
2019-05-05T02:40:30.283Z,1031.92
2019-05-05T02:41:30.266Z,1031.91
2019-05-05T02:42:30.252Z,1031.97
2019-05-05T02:43:30.235Z,1032
2019-05-05T02:44:30.220Z,1032.02
2019-05-05T02:45:30.205Z,1032.03
2019-05-05T02:46:30.194Z,1032.04
2019-05-05T02:47:30.176Z,1032.05
2019-05-05T02:48:30.158Z,1032.05
2019-05-05T02:49:30.144Z,1032.05
2019-05-05T02:50:47.984Z,1032.12
2019-05-05T02:51:30.113Z,1032.16
2019-05-05T02:52:30.097Z,1032.18
2019-05-05T02:53:30.082Z,1032.2
2019-05-05T02:54:30.067Z,1032.25
2019-05-05T02:55:32.184Z,1032.29
2019-05-05T02:56:30.036Z,1032.27
2019-05-05T02:57:30.022Z,1032.32
2019-05-05T02:58:30.004Z,1032.33
2019-05-05T02:59:29.989Z,1032.37
2019-05-05T03:00:29.974Z,1032.31
2019-05-05T03:01:29.958Z,1032.36
2019-05-05T03:02:29.942Z,1032.35
2019-05-05T03:03:29.927Z,1032.34
2019-05-05T03:04:29.910Z,1032.36
2019-05-05T03:05:29.898Z,1032.37
2019-05-05T03:06:29.880Z,1032.37
2019-05-05T03:07:29.865Z,1032.37
2019-05-05T03:08:29.850Z,1032.39
2019-05-05T03:09:29.833Z,1032.44
2019-05-05T03:10:29.816Z,1032.43
2019-05-05T03:11:29.804Z,1032.51
2019-05-05T03:12:29.789Z,1032.52
2019-05-05T03:13:29.771Z,1032.51
2019-05-05T03:14:29.754Z,1032.52
2019-05-05T03:15:29.741Z,1032.5
2019-05-05T03:16:29.724Z,1032.49
2019-05-05T03:17:29.709Z,1032.54
2019-05-05T03:18:29.693Z,1032.56
2019-05-05T03:19:29.679Z,1032.58
2019-05-05T03:20:29.661Z,1032.61
2019-05-05T03:21:29.646Z,1032.62
2019-05-05T03:22:29.630Z,1032.65
2019-05-05T03:23:29.615Z,1032.61
2019-05-05T03:24:29.599Z,1032.63
2019-05-05T03:25:29.583Z,1032.66
2019-05-05T03:26:29.568Z,1032.69
2019-05-05T03:27:29.551Z,1032.69
2019-05-05T03:28:29.536Z,1032.7
2019-05-05T03:29:29.523Z,1032.69
2019-05-05T03:30:29.506Z,1032.74
2019-05-05T03:31:29.489Z,1032.77
2019-05-05T03:32:29.479Z,1032.74
2019-05-05T03:33:29.475Z,1032.77
2019-05-05T03:34:29.442Z,1032.76
2019-05-05T03:35:29.427Z,1032.76
2019-05-05T03:36:29.410Z,1032.75
2019-05-05T03:37:29.395Z,1032.74
2019-05-05T03:38:29.379Z,1032.66
2019-05-05T03:39:29.363Z,1032.68
2019-05-05T03:40:29.347Z,1032.69
2019-05-05T03:41:29.333Z,1032.66
2019-05-05T03:42:29.316Z,1032.67
2019-05-05T03:43:29.305Z,1032.67
2019-05-05T03:44:29.286Z,1032.67
2019-05-05T03:45:29.269Z,1032.7
2019-05-05T03:46:29.253Z,1032.71
2019-05-05T03:47:29.237Z,1032.69
2019-05-05T03:48:29.221Z,1032.68
2019-05-05T03:49:29.206Z,1032.65
2019-05-05T03:50:29.191Z,1032.58
2019-05-05T03:51:29.174Z,1032.59
2019-05-05T03:52:29.159Z,1032.56
2019-05-05T03:53:29.143Z,1032.55
2019-05-05T03:54:29.131Z,1032.56
2019-05-05T03:55:29.113Z,1032.53
2019-05-05T03:56:29.098Z,1032.53
2019-05-05T03:57:29.081Z,1032.49
2019-05-05T03:58:29.067Z,1032.52
2019-05-05T03:59:29.051Z,1032.5
2019-05-05T04:00:29.035Z,1032.4
2019-05-05T04:01:29.022Z,1032.34
2019-05-05T04:02:29.006Z,1032.16
2019-05-05T04:03:28.990Z,1031.83
2019-05-05T04:04:28.975Z,1031.56
2019-05-05T04:05:28.959Z,1031.38
2019-05-05T04:06:28.943Z,1031.11
2019-05-05T04:07:28.927Z,1030.91
2019-05-05T04:08:28.914Z,1030.76
2019-05-05T04:09:28.907Z,1030.55
2019-05-05T04:10:28.885Z,1030.34
2019-05-05T04:11:28.870Z,1030.09
2019-05-05T04:12:28.856Z,1029.92
2019-05-05T04:13:28.841Z,1029.75
2019-05-05T04:14:28.828Z,1029.65
2019-05-05T04:15:28.814Z,1029.48
2019-05-05T04:16:28.802Z,1029.36
2019-05-05T04:17:28.788Z,1029.2
2019-05-05T04:18:28.775Z,1029.08
2019-05-05T04:19:28.762Z,1028.94
2019-05-05T04:20:28.754Z,1028.81
2019-05-05T04:21:33.092Z,1028.63
2019-05-05T04:22:28.726Z,1028.49
2019-05-05T04:23:28.715Z,1028.37
2019-05-05T04:24:28.703Z,1028.25
2019-05-05T04:25:28.693Z,1028.11
2019-05-05T04:26:28.681Z,1027.96
2019-05-05T04:27:28.671Z,1027.79
2019-05-05T04:28:28.662Z,1027.7
2019-05-05T04:29:28.647Z,1027.54
2019-05-05T04:30:28.638Z,1027.43
2019-05-05T04:31:28.633Z,1027.31
2019-05-05T04:32:28.619Z,1027.22
2019-05-05T04:33:28.611Z,1027.12
2019-05-05T04:34:28.602Z,1026.97
2019-05-05T04:35:28.596Z,1026.79
2019-05-05T04:36:28.586Z,1026.68
2019-05-05T04:37:28.577Z,1026.58
2019-05-05T04:38:28.567Z,1026.45
2019-05-05T04:39:28.560Z,1026.33
2019-05-05T04:40:28.554Z,1026.2
2019-05-05T04:41:28.545Z,1026.08
2019-05-05T04:42:28.544Z,1025.97
2019-05-05T04:43:28.534Z,1025.84
2019-05-05T04:44:28.524Z,1025.78
2019-05-05T04:45:28.520Z,1025.95
2019-05-05T04:46:28.514Z,1026.02
2019-05-05T04:47:28.508Z,1025.83
2019-05-05T04:48:28.502Z,1025.65
2019-05-05T04:49:28.496Z,1025.52
2019-05-05T04:50:28.491Z,1025.5
2019-05-05T04:51:28.485Z,1025.4
2019-05-05T04:52:28.478Z,1025.25
2019-05-05T04:53:28.474Z,1025.11
2019-05-05T04:54:28.470Z,1025
2019-05-05T04:55:28.466Z,1024.92
2019-05-05T04:56:30.019Z,1024.83
2019-05-05T04:57:28.456Z,1024.76
2019-05-05T04:58:28.452Z,1024.6
2019-05-05T04:59:28.447Z,1024.52
2019-05-05T05:00:28.444Z,1024.47
2019-05-05T05:01:28.439Z,1024.39
2019-05-05T05:02:28.435Z,1024.29
2019-05-05T05:03:28.430Z,1024.16
2019-05-05T05:04:28.428Z,1024.06
2019-05-05T05:05:28.426Z,1024.03
2019-05-05T05:06:28.422Z,1024.02
2019-05-05T05:07:28.420Z,1023.98
2019-05-05T05:08:28.418Z,1023.94
2019-05-05T05:09:28.414Z,1023.87
2019-05-05T05:10:28.411Z,1023.85
2019-05-05T05:11:28.409Z,1023.89
2019-05-05T05:12:28.407Z,1023.83
2019-05-05T05:13:28.404Z,1023.79
2019-05-05T05:14:28.402Z,1023.67
2019-05-05T05:15:28.401Z,1023.69
2019-05-05T05:16:28.399Z,1023.74
2019-05-05T05:17:28.397Z,1023.72
2019-05-05T05:18:28.396Z,1023.76
2019-05-05T05:19:28.395Z,1023.83
2019-05-05T05:20:28.394Z,1023.98
2019-05-05T05:21:28.393Z,1023.92
2019-05-05T05:22:28.392Z,1024.09
2019-05-05T05:23:29.694Z,1024.19
2019-05-05T05:24:28.389Z,1024.19
2019-05-05T05:25:28.386Z,1024.21
2019-05-05T05:26:28.387Z,1024.17
2019-05-05T05:27:28.389Z,1023.94
2019-05-05T05:28:28.386Z,1023.71
2019-05-05T05:29:28.384Z,1023.69
2019-05-05T05:30:28.383Z,1023.78
2019-05-05T05:31:28.382Z,1023.79
2019-05-05T05:32:28.381Z,1023.79
2019-05-05T05:33:28.381Z,1023.63
2019-05-05T05:34:28.381Z,1023.6
2019-05-05T05:35:28.381Z,1023.49
2019-05-05T05:36:28.380Z,1023.37
2019-05-05T05:37:28.409Z,1023.25
2019-05-05T05:38:28.384Z,1023.12
2019-05-05T05:39:28.378Z,1022.97
2019-05-05T05:40:28.377Z,1022.84
2019-05-05T05:41:28.379Z,1022.7
2019-05-05T05:42:28.380Z,1022.68
2019-05-05T05:43:28.379Z,1022.64
2019-05-05T05:44:28.380Z,1022.61
2019-05-05T05:45:28.379Z,1022.51
2019-05-05T05:46:28.379Z,1022.47
2019-05-05T05:47:28.381Z,1022.32
2019-05-05T05:48:28.386Z,1022.24
2019-05-05T05:49:28.385Z,1022.22
2019-05-05T05:50:28.387Z,1022.23
2019-05-05T05:51:28.389Z,1022.23
2019-05-05T05:52:28.391Z,1022.21
2019-05-05T05:53:28.393Z,1022.2
2019-05-05T05:54:28.395Z,1022.09
2019-05-05T05:55:28.397Z,1022.08
2019-05-05T05:56:28.401Z,1022
2019-05-05T05:57:28.405Z,1021.87
2019-05-05T05:58:28.407Z,1021.77
2019-05-05T05:59:28.409Z,1021.69
2019-05-05T06:00:28.413Z,1021.66
2019-05-05T06:01:28.417Z,1021.77
2019-05-05T06:02:28.421Z,1021.81
2019-05-05T06:03:28.426Z,1021.69
2019-05-05T06:04:28.428Z,1021.65
2019-05-05T06:05:28.431Z,1021.52
2019-05-05T06:06:28.437Z,1021.54
2019-05-05T06:07:28.444Z,1021.51
2019-05-05T06:08:29.976Z,1021.51
2019-05-05T06:09:28.451Z,1021.51
2019-05-05T06:10:28.456Z,1021.57
2019-05-05T06:11:28.461Z,1021.45
2019-05-05T06:12:28.466Z,1021.38
2019-05-05T06:13:28.473Z,1021.31
2019-05-05T06:14:28.478Z,1021.34
2019-05-05T06:15:28.483Z,1021.36
2019-05-05T06:16:28.488Z,1021.36
2019-05-05T06:17:28.500Z,1021.3
2019-05-05T06:18:28.502Z,1021.17
2019-05-05T06:19:28.507Z,1021.1
2019-05-05T06:20:28.512Z,1021.06
2019-05-05T06:21:28.519Z,1021.12
2019-05-05T06:22:31.437Z,1021.07
2019-05-05T06:23:28.532Z,1021.03
2019-05-05T06:24:28.538Z,1020.98
2019-05-05T06:25:28.548Z,1020.92
2019-05-05T06:26:28.553Z,1020.78
2019-05-05T06:27:28.560Z,1020.68
2019-05-05T06:28:28.568Z,1020.74
2019-05-05T06:29:28.574Z,1020.83
2019-05-05T06:30:28.581Z,1020.87
2019-05-05T06:31:28.589Z,1020.85
2019-05-05T06:32:28.597Z,1020.81
2019-05-05T06:33:28.605Z,1020.81
2019-05-05T06:34:28.612Z,1020.81
2019-05-05T06:35:28.619Z,1020.79
2019-05-05T06:36:28.630Z,1020.83
2019-05-05T06:37:28.636Z,1020.82
2019-05-05T06:38:28.644Z,1020.82
2019-05-05T06:39:28.660Z,1020.86
2019-05-05T06:40:28.662Z,1020.86
2019-05-05T06:41:28.669Z,1020.79
2019-05-05T06:42:28.677Z,1020.75
2019-05-05T06:43:28.685Z,1020.73
2019-05-05T06:44:28.694Z,1020.71
2019-05-05T06:45:28.709Z,1020.73
2019-05-05T06:46:28.712Z,1020.75
2019-05-05T06:47:28.720Z,1020.78
2019-05-05T06:48:28.728Z,1020.73
2019-05-05T06:49:31.112Z,1020.6
2019-05-05T06:50:28.746Z,1020.53
2019-05-05T06:51:28.755Z,1020.36
2019-05-05T06:52:40.855Z,1020.21
2019-05-05T06:53:28.771Z,1020.08
2019-05-05T06:54:28.781Z,1020.05
2019-05-05T06:55:28.791Z,1020.07
2019-05-05T06:56:28.798Z,1020.09
2019-05-05T06:57:28.808Z,1020.07
2019-05-05T06:58:28.818Z,1020.05
2019-05-05T06:59:28.826Z,1020.05
2019-05-05T07:00:28.936Z,1020.01
2019-05-05T07:01:28.845Z,1019.96
2019-05-05T07:02:28.855Z,1019.94
2019-05-05T07:03:28.864Z,1019.89
2019-05-05T07:04:28.873Z,1019.84
2019-05-05T07:05:28.882Z,1019.79
2019-05-05T07:06:28.893Z,1019.64
2019-05-05T07:07:28.902Z,1019.63
2019-05-05T07:08:28.913Z,1019.83
2019-05-05T07:09:28.924Z,1019.96
2019-05-05T07:10:28.934Z,1020.03
2019-05-05T07:11:28.943Z,1020.12
2019-05-05T07:12:28.953Z,1020.21
2019-05-05T07:13:28.963Z,1020.11
2019-05-05T07:14:28.973Z,1019.97
2019-05-05T07:15:28.984Z,1019.85
2019-05-05T07:16:28.992Z,1019.83
2019-05-05T07:17:29.002Z,1018.69
2019-05-05T07:18:29.013Z,1020.15
2019-05-05T07:19:29.023Z,1019.9
2019-05-05T07:20:29.033Z,1019.83
2019-05-05T07:21:29.043Z,1019.64
2019-05-05T07:22:29.054Z,1019.56
2019-05-05T07:23:29.064Z,1019.09
2019-05-05T07:24:29.075Z,1019.48
2019-05-05T07:25:39.791Z,1020.54
